Time;durP1;ratioP1;P1;durP2;ratioP2;P2;SDS_P1;SDS_P2;PMS_P1;PMS_P2;Temp;Humidity;BMP_temperature;BMP_pressure;BME280_temperature;BME280_humidity;BME280_pressure;Samples;Min_cycle;Max_cycle;Signal;HPM_P1;HPM_P2
2022/07/04 00:02:10;;;;;;;;;;;16.40;35.60;;;;;;5073897;28;20381;-71
2022/07/04 00:04:36;;;;;;;;;;;16.40;35.70;;;;;;5074375;28;20268;-71
2022/07/04 00:07:01;;;;;;;;;;;16.40;35.70;;;;;;5074306;28;20376;-72
2022/07/04 00:09:27;;;;;;;;;;;16.40;36.20;;;;;;5074056;28;20866;-71
2022/07/04 00:11:52;;;;;;;;;;;16.30;36.40;;;;;;5074016;28;19904;-71
2022/07/04 00:14:18;;;;;;;;;;;16.30;36.80;;;;;;5073860;28;20049;-71
2022/07/04 00:16:43;;;;;;;;;;;16.30;37.30;;;;;;5074042;28;20258;-72
2022/07/04 00:19:09;;;;;;;;;;;16.20;37.80;;;;;;5073739;28;20003;-72
2022/07/04 00:21:34;;;;;;;;;;;16.10;38.50;;;;;;5073638;28;19909;-71
2022/07/04 00:24:00;;;;;;;;;;;16.10;39.30;;;;;;5072757;28;19945;-73
2022/07/04 00:26:25;;;;;;;;;;;16.00;39.30;;;;;;5073786;28;19904;-72
2022/07/04 00:28:51;;;;;;;;;;;16.10;38.80;;;;;;5073591;28;19950;-72
2022/07/04 00:31:16;;;;;;;;;;;16.10;38.90;;;;;;5073402;28;20353;-72
2022/07/04 00:33:42;;;;;;;;;;;16.00;39.50;;;;;;5073480;28;19905;-73
2022/07/04 00:36:07;;;;;;;;;;;16.00;39.80;;;;;;5073456;28;19911;-72
2022/07/04 00:38:33;;;;;;;;;;;16.00;40.30;;;;;;5073143;28;19916;-73
2022/07/04 00:40:58;;;;;;;;;;;16.00;40.30;;;;;;5073630;28;20276;-72
2022/07/04 00:43:25;;;;;;;;;;;16.00;40.30;;;;;;5071067;28;19904;-72
2022/07/04 00:45:50;;;;;;;;;;;16.00;40.70;;;;;;5073702;28;20380;-71
2022/07/04 00:48:16;;;;;;;;;;;16.00;40.60;;;;;;5073314;28;19905;-72
2022/07/04 00:50:45;;;;;;;;;;;15.90;41.30;;;;;;5073592;28;19952;-72
2022/07/04 00:53:12;;;;;;;;;;;15.80;42.10;;;;;;5073153;28;19923;-73
2022/07/04 00:55:37;;;;;;;;;;;15.80;42.50;;;;;;5073460;28;20057;-72
2022/07/04 00:58:03;;;;;;;;;;;15.80;42.90;;;;;;5073155;28;19977;-72
2022/07/04 01:00:29;;;;;;;;;;;15.80;43.10;;;;;;5072860;28;19919;-72
2022/07/04 01:02:54;;;;;;;;;;;15.80;42.80;;;;;;5078059;28;19964;-72
2022/07/04 01:05:20;;;;;;;;;;;15.80;43.30;;;;;;5085175;28;19946;-72
2022/07/04 01:07:46;;;;;;;;;;;15.70;43.90;;;;;;5084582;28;19908;-75
2022/07/04 01:10:11;;;;;;;;;;;15.70;44.50;;;;;;5079411;28;19905;-74
2022/07/04 01:12:37;;;;;;;;;;;15.70;46.10;;;;;;5073448;28;19912;-74
2022/07/04 01:15:03;;;;;;;;;;;15.60;46.20;;;;;;5077603;28;19905;-76
2022/07/04 01:17:29;;;;;;;;;;;15.70;45.30;;;;;;5072778;28;19912;-74
2022/07/04 01:19:54;;;;;;;;;;;15.60;45.40;;;;;;5072880;28;20336;-74
2022/07/04 01:22:21;;;;;;;;;;;15.60;45.90;;;;;;5078430;28;19904;-74
2022/07/04 01:24:46;;;;;;;;;;;15.60;46.20;;;;;;5075691;28;19908;-75
2022/07/04 01:27:12;;;;;;;;;;;15.60;46.30;;;;;;5083137;28;19927;-74
2022/07/04 01:29:37;;;;;;;;;;;15.60;46.90;;;;;;5074778;28;20054;-74
2022/07/04 01:32:06;;;;;;;;;;;15.60;47.60;;;;;;5080812;28;19915;-73
2022/07/04 01:34:32;;;;;;;;;;;15.50;48.20;;;;;;5091798;28;19911;-75
2022/07/04 01:37:01;;;;;;;;;;;15.50;48.80;;;;;;5090580;28;20408;-73
2022/07/04 01:39:27;;;;;;;;;;;15.40;49.50;;;;;;5093413;28;19923;-74
2022/07/04 01:41:52;;;;;;;;;;;15.30;50.10;;;;;;5093687;28;19911;-73
2022/07/04 01:44:18;;;;;;;;;;;15.30;50.40;;;;;;5096618;28;19904;-73
2022/07/04 01:46:43;;;;;;;;;;;15.20;51.00;;;;;;5099937;28;19904;-73
2022/07/04 01:49:09;;;;;;;;;;;15.20;51.20;;;;;;5097158;28;19904;-74
2022/07/04 01:51:34;;;;;;;;;;;15.20;51.90;;;;;;5094383;28;20003;-74
2022/07/04 01:54:00;;;;;;;;;;;15.10;52.30;;;;;;5095583;28;19904;-73
2022/07/04 01:56:25;;;;;;;;;;;15.10;52.90;;;;;;5093642;28;19904;-73
2022/07/04 01:58:51;;;;;;;;;;;14.90;54.70;;;;;;5093660;28;19962;-72
2022/07/04 02:01:32;;;;;;;;;;;14.80;57.20;;;;;;5093448;28;20281;-73
2022/07/04 02:03:58;;;;;;;;;;;14.60;59.20;;;;;;5093704;28;19911;-74
2022/07/04 02:06:23;;;;;;;;;;;14.40;62.70;;;;;;5094913;28;19908;-73
2022/07/04 02:13:00;;;;;;;;;;;14.10;67.90;;;;;;5097919;28;19915;-74
2022/07/04 02:14:19;;;;;;;;;;;14.00;69.90;;;;;;5094142;28;20292;-76
2022/07/04 02:16:44;;;;;;;;;;;13.90;72.50;;;;;;5092378;28;19904;-74
2022/07/04 02:19:10;;;;;;;;;;;13.90;73.70;;;;;;5092540;28;20258;-73
2022/07/04 02:21:35;;;;;;;;;;;13.90;73.10;;;;;;5092065;28;20007;-74
2022/07/04 02:24:01;;;;;;;;;;;13.80;74.60;;;;;;5090914;28;19946;-74
2022/07/04 02:26:26;;;;;;;;;;;13.80;75.40;;;;;;5091050;28;19932;-74
2022/07/04 02:28:52;;;;;;;;;;;13.70;77.10;;;;;;5091169;28;19911;-74
2022/07/04 02:31:17;;;;;;;;;;;13.70;76.30;;;;;;5091795;28;19957;-74
2022/07/04 02:33:43;;;;;;;;;;;13.70;78.10;;;;;;5090893;28;19904;-74
2022/07/04 02:36:08;;;;;;;;;;;13.70;79.20;;;;;;5092207;28;19904;-75
2022/07/04 02:38:34;;;;;;;;;;;13.70;78.20;;;;;;5091883;28;19904;-75
2022/07/04 02:40:59;;;;;;;;;;;13.70;79.10;;;;;;5091865;28;19971;-74
2022/07/04 02:43:25;;;;;;;;;;;13.80;77.60;;;;;;5091936;28;20388;-73
2022/07/04 02:45:50;;;;;;;;;;;13.70;78.80;;;;;;5092337;28;19904;-75
2022/07/04 02:48:16;;;;;;;;;;;13.60;79.30;;;;;;5092067;28;19904;-74
2022/07/04 02:50:41;;;;;;;;;;;13.50;80.90;;;;;;5092229;28;19939;-74
2022/07/04 02:53:07;;;;;;;;;;;13.30;82.80;;;;;;5092013;28;19998;-74
2022/07/04 02:55:32;;;;;;;;;;;13.30;84.80;;;;;;5091979;28;19911;-74
2022/07/04 02:57:58;;;;;;;;;;;13.20;85.80;;;;;;5092217;28;19911;-74
2022/07/04 03:00:23;;;;;;;;;;;13.30;87.00;;;;;;5091752;28;19965;-74
2022/07/04 03:02:49;;;;;;;;;;;13.30;86.10;;;;;;5091891;28;19910;-74
2022/07/04 03:05:14;;;;;;;;;;;13.30;86.90;;;;;;5092063;28;19911;-74
2022/07/04 03:07:40;;;;;;;;;;;13.30;87.60;;;;;;5094256;28;19904;-74
2022/07/04 03:10:06;;;;;;;;;;;13.40;85.30;;;;;;5095536;28;19911;-74
2022/07/04 03:12:31;;;;;;;;;;;13.40;84.40;;;;;;5095164;28;19911;-74
2022/07/04 03:14:58;;;;;;;;;;;13.30;85.30;;;;;;5095737;28;20378;-75
2022/07/04 03:17:24;;;;;;;;;;;13.20;87.70;;;;;;5095462;28;20184;-74
2022/07/04 03:19:50;;;;;;;;;;;13.20;89.20;;;;;;5095377;28;20006;-75
2022/07/04 03:22:15;;;;;;;;;;;13.30;88.10;;;;;;5094989;28;20001;-75
2022/07/04 03:24:41;;;;;;;;;;;13.20;88.80;;;;;;5095735;28;19911;-74
2022/07/04 03:27:06;;;;;;;;;;;13.20;89.50;;;;;;5095362;28;19957;-73
2022/07/04 03:29:32;;;;;;;;;;;13.10;90.70;;;;;;5095185;28;19904;-74
2022/07/04 03:31:57;;;;;;;;;;;13.10;91.20;;;;;;5093420;28;20375;-75
2022/07/04 03:34:23;;;;;;;;;;;13.20;90.00;;;;;;5095348;28;19976;-75
2022/07/04 03:36:49;;;;;;;;;;;13.20;90.30;;;;;;5095033;28;19943;-74
2022/07/04 03:39:14;;;;;;;;;;;13.20;90.50;;;;;;5094879;28;19912;-74
2022/07/04 03:41:39;;;;;;;;;;;13.10;91.70;;;;;;5094749;28;19908;-74
2022/07/04 03:44:05;;;;;;;;;;;13.10;92.30;;;;;;5094872;28;19904;-75
2022/07/04 03:46:30;;;;;;;;;;;13.20;92.70;;;;;;5094920;28;20280;-75
2022/07/04 03:48:56;;;;;;;;;;;13.20;91.60;;;;;;5094661;28;19911;-74
2022/07/04 03:51:22;;;;;;;;;;;13.20;92.00;;;;;;5094524;28;20357;-73
2022/07/04 03:53:48;;;;;;;;;;;13.20;91.90;;;;;;5094607;28;19904;-74
2022/07/04 03:56:14;;;;;;;;;;;13.20;91.70;;;;;;5094367;28;19904;-73
2022/07/04 03:58:42;;;;;;;;;;;13.30;92.70;;;;;;5094546;28;19970;-74
2022/07/04 04:01:08;;;;;;;;;;;13.40;89.30;;;;;;5094414;28;19919;-73
2022/07/04 04:06:17;;;;;;;;;;;13.40;89.80;;;;;;5094357;28;19930;-73
2022/07/04 04:08:43;;;;;;;;;;;13.50;90.10;;;;;;5093979;28;19994;-74
2022/07/04 04:11:09;;;;;;;;;;;13.50;89.20;;;;;;5094273;28;20287;-74
2022/07/04 04:13:34;;;;;;;;;;;13.60;88.80;;;;;;5094330;28;20394;-75
2022/07/04 04:16:00;;;;;;;;;;;13.70;88.20;;;;;;5094502;28;19911;-74
2022/07/04 04:18:25;;;;;;;;;;;13.70;87.10;;;;;;5094088;28;19935;-74
2022/07/04 04:20:50;;;;;;;;;;;13.70;86.70;;;;;;5094096;28;19912;-75
2022/07/04 04:23:16;;;;;;;;;;;13.90;85.60;;;;;;5092874;28;19907;-75
2022/07/04 04:25:41;;;;;;;;;;;13.90;84.90;;;;;;5093760;28;20384;-75
2022/07/04 04:28:07;;;;;;;;;;;14.00;83.80;;;;;;5094141;28;20300;-76
2022/07/04 04:30:33;;;;;;;;;;;14.10;82.80;;;;;;5093898;28;19944;-73
2022/07/04 04:32:59;;;;;;;;;;;14.10;81.60;;;;;;5093717;28;19911;-75
2022/07/04 04:35:24;;;;;;;;;;;14.20;80.50;;;;;;5093572;28;19904;-75
2022/07/04 04:37:49;;;;;;;;;;;14.30;79.60;;;;;;5092537;28;19943;-73
2022/07/04 04:40:15;;;;;;;;;;;14.40;78.50;;;;;;5094381;28;20032;-74
2022/07/04 04:42:40;;;;;;;;;;;14.50;76.40;;;;;;5094359;28;19904;-73
2022/07/04 04:45:06;;;;;;;;;;;14.60;75.40;;;;;;5095059;28;20403;-74
2022/07/04 04:47:32;;;;;;;;;;;14.70;73.90;;;;;;5093092;28;19904;-75
2022/07/04 04:49:57;;;;;;;;;;;14.80;73.30;;;;;;5094100;28;20268;-75
2022/07/04 04:52:23;;;;;;;;;;;14.90;71.80;;;;;;5093669;28;19904;-73
2022/07/04 04:54:48;;;;;;;;;;;14.90;71.40;;;;;;5094015;28;19904;-74
2022/07/04 04:57:14;;;;;;;;;;;15.00;70.10;;;;;;5093759;28;20013;-73
2022/07/04 04:59:39;;;;;;;;;;;15.10;69.60;;;;;;5093438;28;19912;-74
2022/07/04 05:02:05;;;;;;;;;;;15.10;69.30;;;;;;5093292;28;19904;-74
2022/07/04 05:04:30;;;;;;;;;;;15.20;68.70;;;;;;5093403;28;19918;-75
2022/07/04 05:06:56;;;;;;;;;;;15.30;67.90;;;;;;5093461;28;19983;-74
2022/07/04 05:09:21;;;;;;;;;;;15.30;67.50;;;;;;5093192;28;20318;-75
2022/07/04 05:11:47;;;;;;;;;;;15.40;65.10;;;;;;5092115;28;20357;-74
2022/07/04 05:14:13;;;;;;;;;;;15.50;64.60;;;;;;5091682;28;19904;-75
2022/07/04 05:16:39;;;;;;;;;;;15.60;63.30;;;;;;5093067;28;19908;-74
2022/07/04 05:19:04;;;;;;;;;;;15.70;62.20;;;;;;5092834;28;19908;-74
2022/07/04 05:21:30;;;;;;;;;;;15.70;61.70;;;;;;5092693;28;20331;-76
2022/07/04 05:23:56;;;;;;;;;;;15.80;61.10;;;;;;5093168;28;20290;-74
2022/07/04 05:26:21;;;;;;;;;;;15.80;60.80;;;;;;5093063;28;19927;-74
2022/07/04 05:28:47;;;;;;;;;;;15.90;61.10;;;;;;5092110;28;19949;-75
2022/07/04 05:31:12;;;;;;;;;;;16.00;60.80;;;;;;5090749;28;19907;-75
2022/07/04 05:33:38;;;;;;;;;;;16.10;59.80;;;;;;5092745;28;19918;-73
2022/07/04 05:36:03;;;;;;;;;;;16.10;58.40;;;;;;5092359;28;19911;-73
2022/07/04 05:38:29;;;;;;;;;;;16.30;56.50;;;;;;5093128;28;19903;-75
2022/07/04 05:40:54;;;;;;;;;;;16.50;55.60;;;;;;5092501;28;19914;-74
2022/07/04 05:43:21;;;;;;;;;;;16.50;53.40;;;;;;5097898;28;19982;-75
2022/07/04 05:45:48;;;;;;;;;;;16.60;53.70;;;;;;5092397;28;19908;-74
2022/07/04 05:48:13;;;;;;;;;;;16.80;51.40;;;;;;5092187;28;20021;-74
2022/07/04 05:50:39;;;;;;;;;;;16.90;50.60;;;;;;5092719;28;20038;-74
2022/07/04 05:53:04;;;;;;;;;;;17.20;48.40;;;;;;5092159;28;19908;-74
2022/07/04 05:55:30;;;;;;;;;;;17.30;46.90;;;;;;5092448;28;19904;-75
2022/07/04 05:57:55;;;;;;;;;;;17.30;47.10;;;;;;5092702;28;19904;-75
2022/07/04 06:00:21;;;;;;;;;;;17.30;48.20;;;;;;5092039;28;19985;-73
2022/07/04 06:02:47;;;;;;;;;;;17.30;47.50;;;;;;5090633;28;20357;-73
2022/07/04 06:05:13;;;;;;;;;;;17.30;46.00;;;;;;5092170;28;20403;-74
2022/07/04 06:07:38;;;;;;;;;;;17.40;45.90;;;;;;5092164;28;19904;-74
2022/07/04 06:10:04;;;;;;;;;;;17.50;44.90;;;;;;5092878;28;19916;-75
2022/07/04 06:12:30;;;;;;;;;;;17.60;44.30;;;;;;5093705;28;19911;-75
2022/07/04 06:14:55;;;;;;;;;;;17.60;42.80;;;;;;5094020;28;20361;-75
2022/07/04 06:17:21;;;;;;;;;;;17.70;43.90;;;;;;5093155;28;19911;-75
2022/07/04 06:19:46;;;;;;;;;;;17.70;43.00;;;;;;5092887;28;19919;-73
2022/07/04 06:22:12;;;;;;;;;;;17.70;42.80;;;;;;5092116;28;19904;-74
2022/07/04 06:24:38;;;;;;;;;;;17.80;43.00;;;;;;5093011;28;19903;-74
2022/07/04 06:27:03;;;;;;;;;;;17.90;42.20;;;;;;5093709;28;19904;-74
2022/07/04 06:29:29;;;;;;;;;;;18.00;41.40;;;;;;5092486;28;19943;-73
2022/07/04 06:31:54;;;;;;;;;;;18.10;39.80;;;;;;5091232;28;19904;-75
2022/07/04 06:37:04;;;;;;;;;;;18.30;38.40;;;;;;5092460;28;19911;-74
2022/07/04 06:39:29;;;;;;;;;;;18.40;37.50;;;;;;5092574;28;19908;-74
2022/07/04 06:41:55;;;;;;;;;;;18.30;37.10;;;;;;5095593;28;19904;-75
2022/07/04 06:44:20;;;;;;;;;;;18.40;36.90;;;;;;5097058;28;19980;-74
2022/07/04 06:46:46;;;;;;;;;;;18.40;37.50;;;;;;5096617;28;20357;-75
2022/07/04 06:49:11;;;;;;;;;;;18.50;37.20;;;;;;5096453;28;19904;-75
2022/07/04 06:51:37;;;;;;;;;;;18.50;34.90;;;;;;5096969;28;19961;-74
2022/07/04 06:54:03;;;;;;;;;;;18.50;33.50;;;;;;5097656;28;19957;-77
2022/07/04 06:56:28;;;;;;;;;;;18.60;31.90;;;;;;5096888;28;19904;-75
2022/07/04 06:58:53;;;;;;;;;;;18.60;31.30;;;;;;5095941;28;19912;-75
2022/07/04 07:01:19;;;;;;;;;;;18.70;29.80;;;;;;5095684;28;19930;-74
2022/07/04 07:03:44;;;;;;;;;;;18.70;30.40;;;;;;5095023;28;19958;-75
2022/07/04 07:06:10;;;;;;;;;;;18.70;29.00;;;;;;5095694;28;20242;-73
2022/07/04 07:08:35;;;;;;;;;;;18.70;31.80;;;;;;5094565;28;20011;-75
2022/07/04 07:11:13;;;;;;;;;;;18.70;32.30;;;;;;5094671;28;20250;-75
2022/07/04 07:13:39;;;;;;;;;;;18.80;28.90;;;;;;5095950;28;19979;-74
2022/07/04 07:16:05;;;;;;;;;;;18.90;27.90;;;;;;5096081;28;19908;-76
2022/07/04 07:18:30;;;;;;;;;;;18.90;26.80;;;;;;5094807;28;20066;-74
2022/07/04 07:20:56;;;;;;;;;;;18.80;27.50;;;;;;5094387;28;19912;-73
2022/07/04 07:23:21;;;;;;;;;;;18.90;22.70;;;;;;5096941;28;19904;-74
2022/07/04 07:25:47;;;;;;;;;;;18.90;22.60;;;;;;5096333;28;19904;-73
2022/07/04 07:28:13;;;;;;;;;;;19.00;23.30;;;;;;5093954;28;20349;-75
2022/07/04 07:30:38;;;;;;;;;;;19.10;25.00;;;;;;5095125;28;20379;-74
2022/07/04 07:33:04;;;;;;;;;;;19.30;25.10;;;;;;5095765;28;19905;-76
2022/07/04 07:35:29;;;;;;;;;;;19.40;23.00;;;;;;5095166;28;19904;-76
2022/07/04 07:37:55;;;;;;;;;;;19.40;23.20;;;;;;5095552;28;19904;-75
2022/07/04 07:40:21;;;;;;;;;;;19.50;22.20;;;;;;5095484;28;20361;-74
2022/07/04 07:42:46;;;;;;;;;;;19.50;18.90;;;;;;5095424;28;19915;-76
2022/07/04 07:45:12;;;;;;;;;;;19.60;18.70;;;;;;5095416;28;20349;-75
2022/07/04 07:47:37;;;;;;;;;;;19.50;19.80;;;;;;5095514;28;19916;-73
2022/07/04 07:50:03;;;;;;;;;;;19.60;19.60;;;;;;5095087;28;19904;-74
2022/07/04 07:52:29;;;;;;;;;;;19.70;19.30;;;;;;5094982;28;20579;-75
2022/07/04 07:54:54;;;;;;;;;;;19.70;19.80;;;;;;5095332;28;19957;-74
2022/07/04 07:57:20;;;;;;;;;;;19.80;20.30;;;;;;5093325;28;19912;-75
2022/07/04 07:59:45;;;;;;;;;;;19.80;19.00;;;;;;5095214;28;20245;-75
2022/07/04 08:02:11;;;;;;;;;;;19.90;19.80;;;;;;5094163;28;19904;-75
2022/07/04 08:04:40;;;;;;;;;;;19.90;20.90;;;;;;5095562;28;19903;-74
2022/07/04 08:07:07;;;;;;;;;;;19.90;19.90;;;;;;5096410;28;19904;-74
2022/07/04 08:09:33;;;;;;;;;;;19.90;20.00;;;;;;5096248;28;19961;-75
2022/07/04 08:11:59;;;;;;;;;;;20.10;21.10;;;;;;5095607;28;19999;-74
2022/07/04 08:14:24;;;;;;;;;;;20.10;20.40;;;;;;5095280;28;20371;-75
2022/07/04 08:16:50;;;;;;;;;;;20.20;19.80;;;;;;5094395;28;19911;-74
2022/07/04 08:19:15;;;;;;;;;;;20.20;19.80;;;;;;5093272;28;19980;-75
2022/07/04 08:21:41;;;;;;;;;;;20.10;19.50;;;;;;5094490;28;19910;-75
2022/07/04 08:24:06;;;;;;;;;;;20.20;19.70;;;;;;5094901;28;19912;-74
2022/07/04 08:26:32;;;;;;;;;;;20.10;20.20;;;;;;5094965;28;19915;-75
2022/07/04 08:28:59;;;;;;;;;;;20.30;17.70;;;;;;5093473;28;20006;-75
2022/07/04 08:31:25;;;;;;;;;;;20.30;17.80;;;;;;5093457;28;19973;-75
2022/07/04 08:33:51;;;;;;;;;;;20.30;18.60;;;;;;5092304;28;20323;-74
2022/07/04 08:36:16;;;;;;;;;;;20.30;17.50;;;;;;5093380;28;19912;-73
2022/07/04 08:38:42;;;;;;;;;;;20.30;17.60;;;;;;5092164;28;20381;-76
2022/07/04 08:41:07;;;;;;;;;;;20.40;17.60;;;;;;5093034;28;19915;-74
2022/07/04 08:43:34;;;;;;;;;;;20.50;18.10;;;;;;5093181;28;20349;-74
2022/07/04 08:45:59;;;;;;;;;;;20.50;18.10;;;;;;5093603;28;19910;-74
2022/07/04 08:48:26;;;;;;;;;;;20.60;18.00;;;;;;5092881;28;20272;-73
2022/07/04 08:50:56;;;;;;;;;;;20.40;18.40;;;;;;5093488;28;19908;-74
2022/07/04 08:53:22;;;;;;;;;;;20.30;17.90;;;;;;5093497;28;19904;-75
2022/07/04 08:58:33;;;;;;;;;;;20.50;18.30;;;;;;5094673;28;19915;-74
2022/07/04 09:01:03;;;;;;;;;;;20.70;18.20;;;;;;5093913;28;19931;-75
2022/07/04 09:03:28;;;;;;;;;;;20.90;17.40;;;;;;5093480;28;19904;-74
2022/07/04 09:05:54;;;;;;;;;;;21.00;17.50;;;;;;5092386;28;20316;-75
2022/07/04 09:08:20;;;;;;;;;;;21.10;17.40;;;;;;5092866;28;19910;-74
2022/07/04 09:10:47;;;;;;;;;;;21.30;17.70;;;;;;5093159;28;19962;-74
2022/07/04 09:13:14;;;;;;;;;;;21.30;17.20;;;;;;5092756;28;19915;-76
2022/07/04 09:15:44;;;;;;;;;;;21.30;17.70;;;;;;5093151;28;19908;-74
2022/07/04 09:18:23;;;;;;;;;;;21.40;17.60;;;;;;5093054;28;19983;-74
2022/07/04 09:20:49;;;;;;;;;;;21.50;17.30;;;;;;5093096;28;19915;-73
2022/07/04 09:23:19;;;;;;;;;;;21.60;16.00;;;;;;5092827;28;19904;-75
2022/07/04 09:25:45;;;;;;;;;;;21.60;16.20;;;;;;5092134;28;19911;-75
2022/07/04 09:28:10;;;;;;;;;;;21.60;15.90;;;;;;5092702;28;20361;-75
2022/07/04 09:30:46;;;;;;;;;;;21.50;16.10;;;;;;5092995;28;19914;-77
2022/07/04 09:33:11;;;;;;;;;;;21.50;16.00;;;;;;5092883;28;20380;-76
2022/07/04 09:35:37;;;;;;;;;;;21.50;16.40;;;;;;5092903;28;19904;-76
2022/07/04 09:38:03;;;;;;;;;;;21.50;15.30;;;;;;5092600;28;19962;-77
2022/07/04 09:41:24;;;;;;;;;;;21.50;15.30;;;;;;5092549;28;19958;-76
2022/07/04 09:43:21;;;;;;;;;;;21.50;14.70;;;;;;5092718;28;19904;-76
2022/07/04 09:45:57;;;;;;;;;;;21.60;15.80;;;;;;5091918;28;19904;-75
2022/07/04 09:48:23;;;;;;;;;;;21.80;16.00;;;;;;5091051;28;19904;-75
2022/07/04 09:50:49;;;;;;;;;;;21.90;15.60;;;;;;5092341;28;19949;-76
2022/07/04 09:53:14;;;;;;;;;;;22.10;15.10;;;;;;5091226;28;19904;-75
2022/07/04 09:55:40;;;;;;;;;;;22.20;14.50;;;;;;5092422;28;19991;-74
2022/07/04 09:58:06;;;;;;;;;;;22.20;14.40;;;;;;5092420;28;19912;-74
2022/07/04 10:00:33;;;;;;;;;;;22.50;13.50;;;;;;5090662;28;20288;-75
2022/07/04 10:03:17;;;;;;;;;;;22.50;12.90;;;;;;5091902;28;19961;-75
2022/07/04 10:05:44;;;;;;;;;;;22.40;13.40;;;;;;5092186;28;19904;-76
2022/07/04 10:08:10;;;;;;;;;;;22.50;13.40;;;;;;5092039;28;19904;-74
2022/07/04 10:10:39;;;;;;;;;;;22.40;13.30;;;;;;5092028;28;20379;-74
2022/07/04 10:13:08;;;;;;;;;;;22.50;13.40;;;;;;5092046;28;19904;-76
2022/07/04 10:15:36;;;;;;;;;;;22.70;13.40;;;;;;5093415;28;20273;-76
2022/07/04 10:18:02;;;;;;;;;;;22.70;14.00;;;;;;5096368;28;19904;-75
2022/07/04 10:20:28;;;;;;;;;;;22.70;13.70;;;;;;5096216;28;20284;-75
2022/07/04 10:22:53;;;;;;;;;;;22.70;13.80;;;;;;5096902;28;19943;-76
2022/07/04 10:25:19;;;;;;;;;;;22.60;13.90;;;;;;5096321;28;20403;-76
2022/07/04 10:27:44;;;;;;;;;;;22.60;14.00;;;;;;5096560;28;19904;-76
2022/07/04 10:30:12;;;;;;;;;;;22.50;14.10;;;;;;5096587;28;20379;-74
2022/07/04 10:32:38;;;;;;;;;;;22.50;14.20;;;;;;5096269;28;19904;-75
2022/07/04 10:35:03;;;;;;;;;;;22.30;14.80;;;;;;5097294;28;19957;-76
2022/07/04 10:37:47;;;;;;;;;;;22.00;15.00;;;;;;5098283;28;19907;-75
2022/07/04 10:40:32;;;;;;;;;;;21.90;15.50;;;;;;5097074;28;19908;-76
2022/07/04 10:42:58;;;;;;;;;;;22.10;15.00;;;;;;5095880;28;19949;-76
2022/07/04 10:45:32;;;;;;;;;;;22.30;14.50;;;;;;5096433;28;19999;-76
2022/07/04 10:47:58;;;;;;;;;;;22.60;13.20;;;;;;5095893;28;19904;-77
2022/07/04 10:50:28;;;;;;;;;;;22.70;12.90;;;;;;5095964;28;19911;-77
2022/07/04 10:53:23;;;;;;;;;;;22.80;12.20;;;;;;5094319;28;20266;-75
2022/07/04 10:55:49;;;;;;;;;;;22.90;12.50;;;;;;5082712;28;19950;-76
2022/07/04 10:58:35;;;;;;;;;;;23.10;12.60;;;;;;5095746;28;19904;-77
2022/07/04 11:01:10;;;;;;;;;;;23.30;12.70;;;;;;5095723;28;19908;-76
2022/07/04 11:03:43;;;;;;;;;;;23.30;11.70;;;;;;5095693;28;19908;-74
2022/07/04 11:06:29;;;;;;;;;;;23.30;11.20;;;;;;5096240;28;19904;-76
2022/07/04 11:09:10;;;;;;;;;;;23.30;11.60;;;;;;5095657;28;19975;-76
2022/07/04 11:11:51;;;;;;;;;;;23.40;11.90;;;;;;5095673;28;20049;-76
2022/07/04 11:14:32;;;;;;;;;;;23.60;11.10;;;;;;5096082;28;20285;-75
2022/07/04 11:16:57;;;;;;;;;;;23.60;11.00;;;;;;5095652;28;19904;-76
2022/07/04 11:19:23;;;;;;;;;;;23.70;11.20;;;;;;5095715;28;20257;-76
2022/07/04 11:21:48;;;;;;;;;;;23.70;10.30;;;;;;5095294;28;19904;-74
2022/07/04 11:24:14;;;;;;;;;;;23.80;9.80;;;;;;5094436;28;20271;-75
2022/07/04 11:26:40;;;;;;;;;;;23.90;9.10;;;;;;5095263;28;19903;-76
2022/07/04 11:29:05;;;;;;;;;;;24.00;8.80;;;;;;5094369;28;19907;-76
2022/07/04 11:31:34;;;;;;;;;;;24.20;9.00;;;;;;5094782;28;20289;-76
2022/07/04 11:34:00;;;;;;;;;;;24.50;9.30;;;;;;5095132;28;20266;-74
2022/07/04 11:36:25;;;;;;;;;;;24.90;8.70;;;;;;5094789;28;19908;-76
2022/07/04 11:38:55;;;;;;;;;;;25.20;8.40;;;;;;5095003;28;19907;-76
2022/07/04 11:47:01;;;;;;;;;;;25.00;8.40;;;;;;5095121;28;20079;-75
2022/07/04 11:49:26;;;;;;;;;;;24.50;9.10;;;;;;5094980;28;19915;-75
2022/07/04 11:51:55;;;;;;;;;;;24.30;8.70;;;;;;5094473;28;19943;-76
2022/07/04 11:54:20;;;;;;;;;;;24.30;9.30;;;;;;5094668;28;19947;-74
2022/07/04 11:56:46;;;;;;;;;;;24.70;8.20;;;;;;5094396;28;19908;-75
2022/07/04 11:59:13;;;;;;;;;;;24.60;7.50;;;;;;5094331;28;19912;-74
2022/07/04 12:01:38;;;;;;;;;;;24.40;8.80;;;;;;5094387;28;19904;-76
2022/07/04 12:04:14;;;;;;;;;;;24.20;8.90;;;;;;5094714;28;19923;-76
2022/07/04 12:06:40;;;;;;;;;;;24.40;9.50;;;;;;5094654;28;19910;-76
2022/07/04 12:09:06;;;;;;;;;;;24.50;8.60;;;;;;5094318;28;20381;-76
2022/07/04 12:12:10;;;;;;;;;;;24.10;9.40;;;;;;5094258;28;19998;-75
2022/07/04 12:14:35;;;;;;;;;;;24.00;9.60;;;;;;5031821;28;19905;-75
2022/07/04 12:17:17;;;;;;;;;;;23.80;9.90;;;;;;5031718;28;19956;-75
2022/07/04 12:19:49;;;;;;;;;;;23.70;9.30;;;;;;5067572;28;20002;-75
2022/07/04 12:22:24;;;;;;;;;;;23.80;8.90;;;;;;5093930;28;19904;-75
2022/07/04 12:24:49;;;;;;;;;;;24.10;9.10;;;;;;5094236;28;19956;-75
2022/07/04 12:27:18;;;;;;;;;;;24.10;9.60;;;;;;5093897;28;20535;-74
2022/07/04 12:29:48;;;;;;;;;;;24.20;9.30;;;;;;5093950;28;20049;-75
2022/07/04 12:32:14;;;;;;;;;;;24.20;8.70;;;;;;5093770;28;20002;-75
2022/07/04 12:34:39;;;;;;;;;;;24.30;8.50;;;;;;5093988;28;19974;-75
2022/07/04 12:37:07;;;;;;;;;;;24.70;8.80;;;;;;5094099;28;19994;-75
2022/07/04 12:39:40;;;;;;;;;;;24.60;8.40;;;;;;5093109;28;19908;-76
2022/07/04 12:42:06;;;;;;;;;;;24.90;8.10;;;;;;5093836;28;19973;-77
2022/07/04 12:44:32;;;;;;;;;;;25.40;6.50;;;;;;5094093;28;19904;-74
2022/07/04 12:46:58;;;;;;;;;;;25.20;5.00;;;;;;5094606;28;19904;-74
2022/07/04 12:49:23;;;;;;;;;;;25.20;6.30;;;;;;5094229;28;20272;-74
2022/07/04 12:51:49;;;;;;;;;;;25.80;6.70;;;;;;5094281;28;19953;-74
2022/07/04 12:54:15;;;;;;;;;;;26.20;5.60;;;;;;5084129;28;20376;-74
2022/07/04 12:56:45;;;;;;;;;;;26.40;3.60;;;;;;5075132;28;19965;-78
2022/07/04 12:59:11;;;;;;;;;;;26.70;3.10;;;;;;5076119;28;19915;-78
2022/07/04 13:01:38;;;;;;;;;;;26.40;3.60;;;;;;5093822;28;19904;-78
2022/07/04 13:04:04;;;;;;;;;;;26.40;4.00;;;;;;5097725;28;19904;-78
2022/07/04 13:06:29;;;;;;;;;;;26.40;4.30;;;;;;5086957;28;19912;-78
2022/07/04 13:08:58;;;;;;;;;;;26.30;4.10;;;;;;5087206;28;20335;-79
2022/07/04 13:14:08;;;;;;;;;;;26.20;4.10;;;;;;5103347;28;19915;-78
2022/07/04 13:16:34;;;;;;;;;;;26.30;4.10;;;;;;5107978;28;19991;-77
2022/07/04 13:18:59;;;;;;;;;;;26.60;3.20;;;;;;5105983;28;19987;-78
2022/07/04 13:21:25;;;;;;;;;;;27.10;2.70;;;;;;5100116;28;19919;-77
2022/07/04 13:23:51;;;;;;;;;;;26.90;2.20;;;;;;5103405;28;19990;-78
2022/07/04 13:26:17;;;;;;;;;;;26.80;2.40;;;;;;5102168;28;20296;-76
2022/07/04 13:28:42;;;;;;;;;;;27.80;1.80;;;;;;5107806;28;19927;-74
2022/07/04 13:31:08;;;;;;;;;;;28.90;1.00;;;;;;5102628;28;19911;-77
2022/07/04 13:33:33;;;;;;;;;;;29.40;1.00;;;;;;5097847;28;19904;-76
2022/07/04 13:35:59;;;;;;;;;;;30.00;1.00;;;;;;5085942;28;19908;-77
2022/07/04 13:38:25;;;;;;;;;;;29.50;1.00;;;;;;5073248;28;20302;-77
2022/07/04 13:40:51;;;;;;;;;;;29.80;1.00;;;;;;5074018;28;19913;-76
2022/07/04 13:43:17;;;;;;;;;;;29.70;1.00;;;;;;5072213;28;19905;-76
2022/07/04 13:45:48;;;;;;;;;;;30.20;1.00;;;;;;5074440;28;19911;-78
2022/07/04 13:48:13;;;;;;;;;;;30.50;1.00;;;;;;5073523;28;19904;-77
2022/07/04 13:50:39;;;;;;;;;;;30.70;1.00;;;;;;5086315;28;19931;-76
2022/07/04 13:53:05;;;;;;;;;;;29.70;1.00;;;;;;5073732;28;19926;-76
2022/07/04 13:55:31;;;;;;;;;;;28.10;1.00;;;;;;5088111;28;20353;-76
2022/07/04 13:57:56;;;;;;;;;;;28.20;1.30;;;;;;5092010;28;19933;-77
2022/07/04 14:00:22;;;;;;;;;;;28.30;1.20;;;;;;5095917;28;19920;-76
2022/07/04 14:02:49;;;;;;;;;;;28.50;1.00;;;;;;5094126;28;20412;-77
2022/07/04 14:05:14;;;;;;;;;;;28.80;1.00;;;;;;5094083;28;19919;-77
2022/07/04 14:07:40;;;;;;;;;;;28.50;1.00;;;;;;5075385;28;20349;-77
2022/07/04 14:10:06;;;;;;;;;;;28.20;1.00;;;;;;5071305;28;20022;-77
2022/07/04 14:12:31;;;;;;;;;;;27.90;1.00;;;;;;5076667;28;19963;-76
2022/07/04 14:14:57;;;;;;;;;;;27.90;1.00;;;;;;5072304;28;20012;-77
2022/07/04 14:17:22;;;;;;;;;;;28.00;1.90;;;;;;5072312;28;19915;-76
2022/07/04 14:19:48;;;;;;;;;;;28.30;2.60;;;;;;5072238;28;20011;-77
2022/07/04 14:22:13;;;;;;;;;;;28.70;1.10;;;;;;5072068;28;20279;-77
2022/07/04 14:24:39;;;;;;;;;;;28.30;1.00;;;;;;5072136;28;19915;-76
2022/07/04 14:27:04;;;;;;;;;;;27.00;2.40;;;;;;5078022;28;19912;-77
2022/07/04 14:29:30;;;;;;;;;;;26.70;3.60;;;;;;5092827;28;19912;-77
2022/07/04 14:31:55;;;;;;;;;;;26.50;3.40;;;;;;5093917;28;19912;-77
2022/07/04 14:34:21;;;;;;;;;;;26.60;3.70;;;;;;5093096;28;19998;-77
2022/07/04 14:36:47;;;;;;;;;;;27.90;1.90;;;;;;5093046;28;19908;-78